sensor_id;sensor_type;location;lat;lon;timestamp;P1;durP1;ratioP1;P2;durP2;ratioP2
18072;SDS011;9161;47.348;9.648;2024-01-30T00:00:27;12.57;;;5.93;;
18072;SDS011;9161;47.348;9.648;2024-01-30T00:05:30;13.53;;;5.67;;
18072;SDS011;9161;47.348;9.648;2024-01-30T00:10:33;14.93;;;6.07;;
18072;SDS011;9161;47.348;9.648;2024-01-30T00:15:38;9.97;;;4.57;;
18072;SDS011;9161;47.348;9.648;2024-01-30T00:20:42;15.33;;;5.60;;
18072;SDS011;9161;47.348;9.648;2024-01-30T00:25:44;11.17;;;5.20;;
18072;SDS011;9161;47.348;9.648;2024-01-30T00:30:50;10.10;;;5.10;;
18072;SDS011;9161;47.348;9.648;2024-01-30T00:35:55;14.93;;;5.70;;
18072;SDS011;9161;47.348;9.648;2024-01-30T00:40:58;15.07;;;6.10;;
18072;SDS011;9161;47.348;9.648;2024-01-30T00:46:03;12.33;;;6.03;;
18072;SDS011;9161;47.348;9.648;2024-01-30T00:51:05;15.23;;;6.13;;
18072;SDS011;9161;47.348;9.648;2024-01-30T00:56:08;14.37;;;5.90;;
18072;SDS011;9161;47.348;9.648;2024-01-30T01:01:12;32.67;;;5.53;;
18072;SDS011;9161;47.348;9.648;2024-01-30T01:06:15;15.73;;;5.83;;
18072;SDS011;9161;47.348;9.648;2024-01-30T01:11:18;12.37;;;4.57;;
18072;SDS011;9161;47.348;9.648;2024-01-30T01:16:24;11.50;;;4.90;;
18072;SDS011;9161;47.348;9.648;2024-01-30T01:21:27;12.00;;;4.40;;
18072;SDS011;9161;47.348;9.648;2024-01-30T01:26:30;22.83;;;4.43;;
18072;SDS011;9161;47.348;9.648;2024-01-30T01:31:35;12.20;;;4.87;;
18072;SDS011;9161;47.348;9.648;2024-01-30T01:36:44;7.47;;;4.13;;
18072;SDS011;9161;47.348;9.648;2024-01-30T01:41:47;10.43;;;4.60;;
18072;SDS011;9161;47.348;9.648;2024-01-30T01:46:54;12.07;;;5.13;;
18072;SDS011;9161;47.348;9.648;2024-01-30T01:51:58;37.73;;;5.30;;
18072;SDS011;9161;47.348;9.648;2024-01-30T01:57:04;26.37;;;5.00;;
18072;SDS011;9161;47.348;9.648;2024-01-30T02:02:09;15.13;;;5.53;;
18072;SDS011;9161;47.348;9.648;2024-01-30T02:07:17;26.43;;;5.27;;
18072;SDS011;9161;47.348;9.648;2024-01-30T02:12:21;22.77;;;6.03;;
18072;SDS011;9161;47.348;9.648;2024-01-30T02:17:26;38.17;;;5.40;;
18072;SDS011;9161;47.348;9.648;2024-01-30T02:22:31;8.27;;;4.20;;
18072;SDS011;9161;47.348;9.648;2024-01-30T02:27:37;14.23;;;5.50;;
18072;SDS011;9161;47.348;9.648;2024-01-30T02:32:40;36.97;;;5.77;;
18072;SDS011;9161;47.348;9.648;2024-01-30T02:37:45;9.80;;;4.63;;
18072;SDS011;9161;47.348;9.648;2024-01-30T02:42:49;49.40;;;6.17;;
18072;SDS011;9161;47.348;9.648;2024-01-30T02:47:52;15.00;;;5.03;;
18072;SDS011;9161;47.348;9.648;2024-01-30T02:52:56;14.73;;;6.07;;
18072;SDS011;9161;47.348;9.648;2024-01-30T02:57:59;9.67;;;4.50;;
18072;SDS011;9161;47.348;9.648;2024-01-30T03:03:03;14.63;;;5.67;;
18072;SDS011;9161;47.348;9.648;2024-01-30T03:08:09;10.33;;;5.40;;
18072;SDS011;9161;47.348;9.648;2024-01-30T03:13:12;14.77;;;5.73;;
18072;SDS011;9161;47.348;9.648;2024-01-30T03:18:16;11.00;;;4.37;;
18072;SDS011;9161;47.348;9.648;2024-01-30T03:23:21;11.27;;;4.70;;
18072;SDS011;9161;47.348;9.648;2024-01-30T03:28:25;10.63;;;4.93;;
18072;SDS011;9161;47.348;9.648;2024-01-30T03:33:29;11.97;;;4.50;;
18072;SDS011;9161;47.348;9.648;2024-01-30T03:38:34;41.07;;;5.47;;
18072;SDS011;9161;47.348;9.648;2024-01-30T03:43:38;14.70;;;4.57;;
18072;SDS011;9161;47.348;9.648;2024-01-30T03:48:43;10.40;;;4.43;;
18072;SDS011;9161;47.348;9.648;2024-01-30T03:53:49;11.50;;;4.37;;
18072;SDS011;9161;47.348;9.648;2024-01-30T03:58:53;8.90;;;4.30;;
18072;SDS011;9161;47.348;9.648;2024-01-30T04:03:55;9.77;;;4.33;;
18072;SDS011;9161;47.348;9.648;2024-01-30T04:08:59;10.03;;;4.83;;
18072;SDS011;9161;47.348;9.648;2024-01-30T04:14:02;14.10;;;5.23;;
18072;SDS011;9161;47.348;9.648;2024-01-30T04:19:04;8.73;;;4.07;;
18072;SDS011;9161;47.348;9.648;2024-01-30T04:24:08;10.43;;;4.83;;
18072;SDS011;9161;47.348;9.648;2024-01-30T04:29:10;9.90;;;4.73;;
18072;SDS011;9161;47.348;9.648;2024-01-30T04:34:12;19.30;;;5.13;;
18072;SDS011;9161;47.348;9.648;2024-01-30T04:39:16;12.30;;;4.67;;
18072;SDS011;9161;47.348;9.648;2024-01-30T04:44:18;14.77;;;5.10;;
18072;SDS011;9161;47.348;9.648;2024-01-30T04:49:21;26.30;;;6.33;;
18072;SDS011;9161;47.348;9.648;2024-01-30T04:54:25;10.13;;;4.73;;
18072;SDS011;9161;47.348;9.648;2024-01-30T04:59:27;10.30;;;4.10;;
18072;SDS011;9161;47.348;9.648;2024-01-30T05:04:29;11.40;;;5.13;;
18072;SDS011;9161;47.348;9.648;2024-01-30T05:09:35;10.07;;;4.33;;
18072;SDS011;9161;47.348;9.648;2024-01-30T05:14:38;10.40;;;4.17;;
18072;SDS011;9161;47.348;9.648;2024-01-30T05:19:40;14.17;;;5.23;;
18072;SDS011;9161;47.348;9.648;2024-01-30T05:24:44;10.30;;;4.37;;
18072;SDS011;9161;47.348;9.648;2024-01-30T05:29:46;10.30;;;4.47;;
18072;SDS011;9161;47.348;9.648;2024-01-30T05:34:48;12.30;;;5.00;;
18072;SDS011;9161;47.348;9.648;2024-01-30T05:39:53;10.33;;;4.60;;
18072;SDS011;9161;47.348;9.648;2024-01-30T05:44:55;12.13;;;5.27;;
18072;SDS011;9161;47.348;9.648;2024-01-30T05:49:57;8.07;;;4.33;;
18072;SDS011;9161;47.348;9.648;2024-01-30T05:55:02;10.60;;;4.67;;
18072;SDS011;9161;47.348;9.648;2024-01-30T06:00:05;6.87;;;3.73;;
18072;SDS011;9161;47.348;9.648;2024-01-30T06:05:09;11.63;;;4.67;;
18072;SDS011;9161;47.348;9.648;2024-01-30T06:10:13;10.53;;;4.33;;
18072;SDS011;9161;47.348;9.648;2024-01-30T06:15:16;10.73;;;4.43;;
18072;SDS011;9161;47.348;9.648;2024-01-30T06:20:19;12.27;;;4.93;;
18072;SDS011;9161;47.348;9.648;2024-01-30T06:25:22;15.30;;;5.20;;
18072;SDS011;9161;47.348;9.648;2024-01-30T06:30:25;13.23;;;5.17;;
18072;SDS011;9161;47.348;9.648;2024-01-30T06:35:27;10.80;;;4.53;;
18072;SDS011;9161;47.348;9.648;2024-01-30T06:40:31;9.63;;;4.40;;
18072;SDS011;9161;47.348;9.648;2024-01-30T06:45:34;11.70;;;4.67;;
18072;SDS011;9161;47.348;9.648;2024-01-30T06:50:36;11.40;;;3.77;;
18072;SDS011;9161;47.348;9.648;2024-01-30T06:55:39;8.83;;;4.60;;
18072;SDS011;9161;47.348;9.648;2024-01-30T07:00:42;10.43;;;4.43;;
18072;SDS011;9161;47.348;9.648;2024-01-30T07:05:43;10.30;;;4.53;;
18072;SDS011;9161;47.348;9.648;2024-01-30T07:10:47;14.07;;;5.63;;
18072;SDS011;9161;47.348;9.648;2024-01-30T07:15:49;15.27;;;6.03;;
18072;SDS011;9161;47.348;9.648;2024-01-30T07:20:51;15.93;;;5.37;;
18072;SDS011;9161;47.348;9.648;2024-01-30T07:25:55;12.63;;;5.20;;
18072;SDS011;9161;47.348;9.648;2024-01-30T07:30:57;16.80;;;4.80;;
18072;SDS011;9161;47.348;9.648;2024-01-30T07:36:00;10.17;;;4.93;;
18072;SDS011;9161;47.348;9.648;2024-01-30T07:41:03;11.77;;;4.80;;
18072;SDS011;9161;47.348;9.648;2024-01-30T07:46:05;9.50;;;4.73;;
18072;SDS011;9161;47.348;9.648;2024-01-30T07:51:07;12.93;;;5.87;;
18072;SDS011;9161;47.348;9.648;2024-01-30T07:56:11;13.93;;;5.60;;
18072;SDS011;9161;47.348;9.648;2024-01-30T08:01:14;15.40;;;5.47;;
18072;SDS011;9161;47.348;9.648;2024-01-30T08:06:17;11.73;;;4.77;;
18072;SDS011;9161;47.348;9.648;2024-01-30T08:11:21;11.50;;;4.60;;
18072;SDS011;9161;47.348;9.648;2024-01-30T08:16:26;14.87;;;5.40;;
18072;SDS011;9161;47.348;9.648;2024-01-30T08:21:28;11.00;;;4.57;;
18072;SDS011;9161;47.348;9.648;2024-01-30T08:26:40;12.30;;;5.00;;
18072;SDS011;9161;47.348;9.648;2024-01-30T08:31:42;14.23;;;5.70;;
18072;SDS011;9161;47.348;9.648;2024-01-30T08:36:46;15.47;;;5.53;;
18072;SDS011;9161;47.348;9.648;2024-01-30T08:41:49;13.27;;;5.03;;
18072;SDS011;9161;47.348;9.648;2024-01-30T08:46:51;9.63;;;4.93;;
18072;SDS011;9161;47.348;9.648;2024-01-30T08:51:56;11.50;;;4.73;;
18072;SDS011;9161;47.348;9.648;2024-01-30T08:56:59;10.90;;;4.83;;
18072;SDS011;9161;47.348;9.648;2024-01-30T09:02:02;11.60;;;4.93;;
18072;SDS011;9161;47.348;9.648;2024-01-30T09:07:12;12.27;;;4.80;;
18072;SDS011;9161;47.348;9.648;2024-01-30T09:12:15;9.60;;;4.40;;
18072;SDS011;9161;47.348;9.648;2024-01-30T09:17:19;8.90;;;4.40;;
18072;SDS011;9161;47.348;9.648;2024-01-30T09:22:22;9.77;;;4.30;;
18072;SDS011;9161;47.348;9.648;2024-01-30T09:27:27;8.20;;;4.30;;
18072;SDS011;9161;47.348;9.648;2024-01-30T09:32:30;8.00;;;3.77;;
18072;SDS011;9161;47.348;9.648;2024-01-30T09:37:34;10.70;;;4.23;;
18072;SDS011;9161;47.348;9.648;2024-01-30T09:42:40;11.23;;;3.90;;
18072;SDS011;9161;47.348;9.648;2024-01-30T09:47:46;10.83;;;4.67;;
18072;SDS011;9161;47.348;9.648;2024-01-30T09:52:48;11.60;;;4.70;;
18072;SDS011;9161;47.348;9.648;2024-01-30T09:57:54;10.80;;;5.60;;
18072;SDS011;9161;47.348;9.648;2024-01-30T10:02:56;12.87;;;5.53;;
18072;SDS011;9161;47.348;9.648;2024-01-30T10:07:59;14.73;;;6.17;;
18072;SDS011;9161;47.348;9.648;2024-01-30T10:13:03;11.40;;;6.07;;
18072;SDS011;9161;47.348;9.648;2024-01-30T10:18:06;12.23;;;5.33;;
18072;SDS011;9161;47.348;9.648;2024-01-30T10:23:10;13.37;;;5.03;;
18072;SDS011;9161;47.348;9.648;2024-01-30T10:28:15;12.33;;;5.63;;
18072;SDS011;9161;47.348;9.648;2024-01-30T10:33:16;12.67;;;6.07;;
18072;SDS011;9161;47.348;9.648;2024-01-30T10:38:19;13.73;;;6.17;;
18072;SDS011;9161;47.348;9.648;2024-01-30T10:43:26;12.97;;;6.23;;
18072;SDS011;9161;47.348;9.648;2024-01-30T10:48:32;12.17;;;5.63;;
18072;SDS011;9161;47.348;9.648;2024-01-30T10:53:45;11.23;;;5.50;;
18072;SDS011;9161;47.348;9.648;2024-01-30T10:58:52;12.60;;;5.80;;
18072;SDS011;9161;47.348;9.648;2024-01-30T11:03:56;8.83;;;5.60;;
18072;SDS011;9161;47.348;9.648;2024-01-30T11:09:02;13.37;;;6.27;;
18072;SDS011;9161;47.348;9.648;2024-01-30T11:14:12;13.37;;;6.70;;
18072;SDS011;9161;47.348;9.648;2024-01-30T11:19:22;12.10;;;5.50;;
18072;SDS011;9161;47.348;9.648;2024-01-30T11:24:27;9.97;;;5.57;;
18072;SDS011;9161;47.348;9.648;2024-01-30T11:29:31;7.77;;;4.47;;
18072;SDS011;9161;47.348;9.648;2024-01-30T11:34:39;8.30;;;4.93;;
18072;SDS011;9161;47.348;9.648;2024-01-30T11:39:43;7.63;;;5.03;;
18072;SDS011;9161;47.348;9.648;2024-01-30T11:44:49;9.27;;;4.70;;
18072;SDS011;9161;47.348;9.648;2024-01-30T11:49:52;10.33;;;5.37;;
18072;SDS011;9161;47.348;9.648;2024-01-30T11:55:00;5.17;;;3.27;;
18072;SDS011;9161;47.348;9.648;2024-01-30T12:00:05;5.87;;;3.37;;
18072;SDS011;9161;47.348;9.648;2024-01-30T12:05:11;6.77;;;3.17;;
18072;SDS011;9161;47.348;9.648;2024-01-30T12:10:15;4.53;;;2.93;;
18072;SDS011;9161;47.348;9.648;2024-01-30T12:15:21;5.00;;;2.73;;
18072;SDS011;9161;47.348;9.648;2024-01-30T12:20:25;5.83;;;3.33;;
18072;SDS011;9161;47.348;9.648;2024-01-30T12:25:30;5.37;;;3.27;;
18072;SDS011;9161;47.348;9.648;2024-01-30T12:30:36;5.27;;;3.07;;
18072;SDS011;9161;47.348;9.648;2024-01-30T12:35:40;4.30;;;3.17;;
18072;SDS011;9161;47.348;9.648;2024-01-30T12:41:02;6.63;;;3.83;;
18072;SDS011;9161;47.348;9.648;2024-01-30T12:46:08;4.90;;;2.87;;
18072;SDS011;9161;47.348;9.648;2024-01-30T12:51:11;5.47;;;3.30;;
18072;SDS011;9161;47.348;9.648;2024-01-30T12:56:14;6.60;;;3.20;;
18072;SDS011;9161;47.348;9.648;2024-01-30T13:01:19;4.40;;;3.03;;
18072;SDS011;9161;47.348;9.648;2024-01-30T13:06:23;8.37;;;3.50;;
18072;SDS011;9161;47.348;9.648;2024-01-30T13:11:26;8.00;;;3.50;;
18072;SDS011;9161;47.348;9.648;2024-01-30T13:16:30;7.33;;;3.97;;
18072;SDS011;9161;47.348;9.648;2024-01-30T13:21:33;6.37;;;3.43;;
18072;SDS011;9161;47.348;9.648;2024-01-30T13:26:36;8.20;;;3.43;;
18072;SDS011;9161;47.348;9.648;2024-01-30T13:31:41;6.47;;;4.10;;
18072;SDS011;9161;47.348;9.648;2024-01-30T13:36:45;8.00;;;4.10;;
18072;SDS011;9161;47.348;9.648;2024-01-30T13:41:48;7.53;;;3.83;;
18072;SDS011;9161;47.348;9.648;2024-01-30T13:46:53;9.60;;;4.63;;
18072;SDS011;9161;47.348;9.648;2024-01-30T13:51:56;8.57;;;4.30;;
18072;SDS011;9161;47.348;9.648;2024-01-30T13:57:00;8.83;;;4.30;;
18072;SDS011;9161;47.348;9.648;2024-01-30T14:02:03;10.27;;;4.33;;
18072;SDS011;9161;47.348;9.648;2024-01-30T14:07:09;10.73;;;4.80;;
18072;SDS011;9161;47.348;9.648;2024-01-30T14:12:12;6.93;;;4.03;;
18072;SDS011;9161;47.348;9.648;2024-01-30T14:17:16;8.23;;;4.43;;
18072;SDS011;9161;47.348;9.648;2024-01-30T14:22:18;9.27;;;4.73;;
18072;SDS011;9161;47.348;9.648;2024-01-30T14:27:21;6.57;;;3.70;;
18072;SDS011;9161;47.348;9.648;2024-01-30T14:32:26;7.10;;;4.23;;
18072;SDS011;9161;47.348;9.648;2024-01-30T14:37:30;6.60;;;3.73;;
18072;SDS011;9161;47.348;9.648;2024-01-30T14:42:33;7.50;;;4.03;;
18072;SDS011;9161;47.348;9.648;2024-01-30T14:47:38;6.67;;;4.07;;
18072;SDS011;9161;47.348;9.648;2024-01-30T14:52:41;8.30;;;3.67;;
18072;SDS011;9161;47.348;9.648;2024-01-30T14:57:44;9.13;;;4.13;;
18072;SDS011;9161;47.348;9.648;2024-01-30T15:02:48;7.70;;;4.67;;
18072;SDS011;9161;47.348;9.648;2024-01-30T15:07:52;6.87;;;4.23;;
18072;SDS011;9161;47.348;9.648;2024-01-30T15:12:55;6.37;;;4.07;;
18072;SDS011;9161;47.348;9.648;2024-01-30T15:17:59;8.67;;;4.27;;
18072;SDS011;9161;47.348;9.648;2024-01-30T15:23:02;9.33;;;4.30;;
18072;SDS011;9161;47.348;9.648;2024-01-30T15:28:04;8.67;;;4.70;;
18072;SDS011;9161;47.348;9.648;2024-01-30T15:33:08;10.43;;;4.33;;
18072;SDS011;9161;47.348;9.648;2024-01-30T15:38:11;10.30;;;5.13;;
18072;SDS011;9161;47.348;9.648;2024-01-30T15:43:32;11.60;;;4.90;;
18072;SDS011;9161;47.348;9.648;2024-01-30T15:49:32;13.50;;;6.20;;
18072;SDS011;9161;47.348;9.648;2024-01-30T15:54:35;14.60;;;6.40;;
18072;SDS011;9161;47.348;9.648;2024-01-30T15:59:37;12.80;;;6.70;;
18072;SDS011;9161;47.348;9.648;2024-01-30T16:04:41;13.47;;;6.97;;
18072;SDS011;9161;47.348;9.648;2024-01-30T16:09:43;15.10;;;6.87;;
18072;SDS011;9161;47.348;9.648;2024-01-30T16:14:46;18.37;;;5.37;;
18072;SDS011;9161;47.348;9.648;2024-01-30T16:19:49;13.90;;;5.60;;
18072;SDS011;9161;47.348;9.648;2024-01-30T16:24:51;14.40;;;6.77;;
18072;SDS011;9161;47.348;9.648;2024-01-30T16:30:40;11.67;;;6.33;;
18072;SDS011;9161;47.348;9.648;2024-01-30T16:41:46;12.27;;;5.60;;
18072;SDS011;9161;47.348;9.648;2024-01-30T16:46:49;10.27;;;5.10;;
18072;SDS011;9161;47.348;9.648;2024-01-30T16:51:56;14.27;;;6.03;;
18072;SDS011;9161;47.348;9.648;2024-01-30T17:03:14;14.37;;;6.33;;
18072;SDS011;9161;47.348;9.648;2024-01-30T17:08:16;13.83;;;6.13;;
18072;SDS011;9161;47.348;9.648;2024-01-30T17:13:19;15.23;;;6.63;;
18072;SDS011;9161;47.348;9.648;2024-01-30T17:18:23;16.10;;;7.90;;
18072;SDS011;9161;47.348;9.648;2024-01-30T17:23:25;16.90;;;7.80;;
18072;SDS011;9161;47.348;9.648;2024-01-30T17:28:28;16.97;;;7.33;;
18072;SDS011;9161;47.348;9.648;2024-01-30T17:33:33;15.07;;;7.17;;
18072;SDS011;9161;47.348;9.648;2024-01-30T17:38:35;36.17;;;14.90;;
18072;SDS011;9161;47.348;9.648;2024-01-30T17:43:38;13.87;;;7.20;;
18072;SDS011;9161;47.348;9.648;2024-01-30T17:48:43;16.20;;;7.53;;
18072;SDS011;9161;47.348;9.648;2024-01-30T17:53:47;15.20;;;6.60;;
18072;SDS011;9161;47.348;9.648;2024-01-30T17:58:50;13.33;;;6.43;;
18072;SDS011;9161;47.348;9.648;2024-01-30T18:03:55;14.43;;;6.47;;
18072;SDS011;9161;47.348;9.648;2024-01-30T18:08:58;13.47;;;7.07;;
18072;SDS011;9161;47.348;9.648;2024-01-30T18:14:01;17.27;;;7.47;;
18072;SDS011;9161;47.348;9.648;2024-01-30T18:19:05;15.70;;;6.57;;
18072;SDS011;9161;47.348;9.648;2024-01-30T18:24:07;17.63;;;6.37;;
18072;SDS011;9161;47.348;9.648;2024-01-30T18:29:09;14.37;;;6.17;;
18072;SDS011;9161;47.348;9.648;2024-01-30T18:34:12;11.63;;;5.67;;
18072;SDS011;9161;47.348;9.648;2024-01-30T18:39:15;18.53;;;6.30;;
18072;SDS011;9161;47.348;9.648;2024-01-30T18:44:19;14.30;;;5.77;;
18072;SDS011;9161;47.348;9.648;2024-01-30T18:49:25;14.27;;;5.67;;
18072;SDS011;9161;47.348;9.648;2024-01-30T18:54:33;12.50;;;5.33;;
18072;SDS011;9161;47.348;9.648;2024-01-30T18:59:39;13.33;;;6.07;;
18072;SDS011;9161;47.348;9.648;2024-01-30T19:04:46;12.67;;;6.03;;
18072;SDS011;9161;47.348;9.648;2024-01-30T19:09:52;11.87;;;6.03;;
18072;SDS011;9161;47.348;9.648;2024-01-30T19:14:59;16.53;;;6.53;;
18072;SDS011;9161;47.348;9.648;2024-01-30T19:20:30;13.50;;;5.73;;
18072;SDS011;9161;47.348;9.648;2024-01-30T19:26:40;13.50;;;6.07;;
18072;SDS011;9161;47.348;9.648;2024-01-30T19:31:44;19.00;;;7.60;;
18072;SDS011;9161;47.348;9.648;2024-01-30T19:36:52;20.27;;;8.67;;
18072;SDS011;9161;47.348;9.648;2024-01-30T19:41:57;16.30;;;7.80;;
18072;SDS011;9161;47.348;9.648;2024-01-30T19:47:01;18.00;;;8.70;;
18072;SDS011;9161;47.348;9.648;2024-01-30T19:52:11;19.57;;;8.87;;
18072;SDS011;9161;47.348;9.648;2024-01-30T19:57:15;22.23;;;10.53;;
18072;SDS011;9161;47.348;9.648;2024-01-30T20:02:20;21.47;;;9.67;;
18072;SDS011;9161;47.348;9.648;2024-01-30T20:07:27;22.83;;;10.13;;
18072;SDS011;9161;47.348;9.648;2024-01-30T20:12:33;16.40;;;7.67;;
18072;SDS011;9161;47.348;9.648;2024-01-30T20:17:38;22.93;;;9.17;;
18072;SDS011;9161;47.348;9.648;2024-01-30T20:22:45;18.33;;;8.40;;
18072;SDS011;9161;47.348;9.648;2024-01-30T20:27:48;20.53;;;8.03;;
18072;SDS011;9161;47.348;9.648;2024-01-30T20:32:51;18.07;;;8.07;;
18072;SDS011;9161;47.348;9.648;2024-01-30T20:37:57;25.00;;;9.70;;
18072;SDS011;9161;47.348;9.648;2024-01-30T20:43:01;24.80;;;12.03;;
18072;SDS011;9161;47.348;9.648;2024-01-30T20:48:08;27.73;;;12.30;;
18072;SDS011;9161;47.348;9.648;2024-01-30T20:53:19;25.33;;;11.37;;
18072;SDS011;9161;47.348;9.648;2024-01-30T20:58:23;30.13;;;11.23;;
18072;SDS011;9161;47.348;9.648;2024-01-30T21:03:31;23.90;;;11.03;;
18072;SDS011;9161;47.348;9.648;2024-01-30T21:08:36;25.83;;;10.90;;
18072;SDS011;9161;47.348;9.648;2024-01-30T21:13:43;22.60;;;9.60;;
18072;SDS011;9161;47.348;9.648;2024-01-30T21:18:47;24.63;;;9.27;;
18072;SDS011;9161;47.348;9.648;2024-01-30T21:23:55;22.83;;;8.80;;
18072;SDS011;9161;47.348;9.648;2024-01-30T21:29:00;19.87;;;9.70;;
18072;SDS011;9161;47.348;9.648;2024-01-30T21:34:03;19.90;;;9.93;;
18072;SDS011;9161;47.348;9.648;2024-01-30T21:39:12;27.17;;;11.40;;
18072;SDS011;9161;47.348;9.648;2024-01-30T21:44:17;20.93;;;9.47;;
18072;SDS011;9161;47.348;9.648;2024-01-30T21:49:20;25.50;;;10.57;;
18072;SDS011;9161;47.348;9.648;2024-01-30T21:54:29;18.80;;;9.40;;
18072;SDS011;9161;47.348;9.648;2024-01-30T21:59:32;24.23;;;10.47;;
18072;SDS011;9161;47.348;9.648;2024-01-30T22:04:36;18.90;;;9.93;;
18072;SDS011;9161;47.348;9.648;2024-01-30T22:09:41;22.83;;;10.10;;
18072;SDS011;9161;47.348;9.648;2024-01-30T22:14:43;20.23;;;8.13;;
18072;SDS011;9161;47.348;9.648;2024-01-30T22:19:46;22.80;;;9.10;;
18072;SDS011;9161;47.348;9.648;2024-01-30T22:24:51;20.80;;;9.27;;
18072;SDS011;9161;47.348;9.648;2024-01-30T22:29:54;25.13;;;9.13;;
18072;SDS011;9161;47.348;9.648;2024-01-30T22:34:57;20.57;;;8.57;;
18072;SDS011;9161;47.348;9.648;2024-01-30T22:40:02;16.03;;;6.67;;
18072;SDS011;9161;47.348;9.648;2024-01-30T22:45:06;22.00;;;8.53;;
18072;SDS011;9161;47.348;9.648;2024-01-30T22:50:08;23.00;;;10.10;;
18072;SDS011;9161;47.348;9.648;2024-01-30T22:55:13;26.40;;;10.90;;
18072;SDS011;9161;47.348;9.648;2024-01-30T23:00:17;23.23;;;9.90;;
18072;SDS011;9161;47.348;9.648;2024-01-30T23:05:26;26.83;;;10.13;;
18072;SDS011;9161;47.348;9.648;2024-01-30T23:10:31;22.63;;;7.77;;
18072;SDS011;9161;47.348;9.648;2024-01-30T23:15:35;12.00;;;5.23;;
18072;SDS011;9161;47.348;9.648;2024-01-30T23:20:37;7.53;;;3.70;;
18072;SDS011;9161;47.348;9.648;2024-01-30T23:25:41;9.70;;;4.47;;
18072;SDS011;9161;47.348;9.648;2024-01-30T23:30:44;13.87;;;6.00;;
18072;SDS011;9161;47.348;9.648;2024-01-30T23:35:47;16.90;;;7.00;;
18072;SDS011;9161;47.348;9.648;2024-01-30T23:40:51;16.13;;;6.60;;
18072;SDS011;9161;47.348;9.648;2024-01-30T23:45:53;20.93;;;7.33;;
18072;SDS011;9161;47.348;9.648;2024-01-30T23:50:56;21.97;;;7.97;;
18072;SDS011;9161;47.348;9.648;2024-01-30T23:56:00;20.07;;;7.60;;
